createdAt,value
2022-08-01T00:02:10.709Z,101270.81
2022-08-01T00:04:39.724Z,101282.38
2022-08-01T00:10:44.255Z,101287.38
2022-08-01T00:13:11.725Z,101284.94
2022-08-01T00:16:00.519Z,101283.94
2022-08-01T00:18:28.041Z,101290.31
2022-08-01T00:21:29.281Z,101280.63
2022-08-01T00:23:56.765Z,101275.03
2022-08-01T00:26:24.196Z,101280.69
2022-08-01T00:30:04.755Z,101285.16
2022-08-01T00:39:48.446Z,101274.41
2022-08-01T00:42:16.420Z,101263.09
2022-08-01T00:44:46.376Z,101274.09
2022-08-01T00:50:39.951Z,101273.06
2022-08-01T00:53:07.480Z,101260.88
2022-08-01T00:56:03.920Z,101271.34
2022-08-01T00:58:34.934Z,101272.09
2022-08-01T01:01:03.795Z,101272.56
2022-08-01T01:07:56.560Z,101276.19
2022-08-01T01:10:44.337Z,101268.47
2022-08-01T01:13:36.557Z,101261.94
2022-08-01T01:16:20.422Z,101280.22
2022-08-01T01:19:30.727Z,101269.50
2022-08-01T01:22:58.827Z,101266.25
2022-08-01T01:25:26.253Z,101265.38
2022-08-01T01:31:22.516Z,101258.91
2022-08-01T01:33:54.403Z,101254.78
2022-08-01T01:36:25.851Z,101252.38
2022-08-01T01:39:15.383Z,101246.81
2022-08-01T01:42:07.525Z,101245.91
2022-08-01T01:44:35.631Z,101249.00
2022-08-01T01:47:04.132Z,101245.84
2022-08-01T01:49:40.226Z,101243.66
2022-08-01T01:52:09.728Z,101238.41
2022-08-01T01:54:48.257Z,101245.78
2022-08-01T01:57:29.317Z,101245.38
2022-08-01T02:00:15.471Z,101243.72
2022-08-01T02:02:44.496Z,101245.38
2022-08-01T02:05:13.990Z,101246.09
2022-08-01T02:11:22.787Z,101242.63
2022-08-01T02:25:14.351Z,101236.63
2022-08-01T02:27:47.032Z,101247.78
2022-08-01T02:34:14.403Z,101226.13
2022-08-01T02:37:04.253Z,101217.25
2022-08-01T02:54:54.574Z,101218.25
2022-08-01T03:01:51.278Z,101217.28
2022-08-01T03:04:20.709Z,101207.03
2022-08-01T03:10:18.759Z,101208.47
2022-08-01T03:12:48.316Z,101213.69
2022-08-01T03:15:26.247Z,101213.31
2022-08-01T03:22:04.923Z,101216.22
2022-08-01T03:24:34.343Z,101216.28
2022-08-01T03:27:03.373Z,101218.63
2022-08-01T03:29:33.176Z,101209.91
2022-08-01T03:32:02.750Z,101209.91
2022-08-01T03:34:31.353Z,101209.00
2022-08-01T03:40:33.982Z,101211.81
2022-08-01T03:43:36.522Z,101202.88
2022-08-01T03:46:11.190Z,101211.66
2022-08-01T03:48:44.107Z,101222.75
2022-08-01T03:51:13.513Z,101213.13
2022-08-01T03:53:43.513Z,101209.09
2022-08-01T03:56:13.303Z,101214.28
2022-08-01T04:02:16.068Z,101210.13
2022-08-01T04:09:01.131Z,101209.50
2022-08-01T04:15:04.444Z,101210.41
2022-08-01T04:17:33.973Z,101205.09
2022-08-01T04:20:01.446Z,101199.09
2022-08-01T04:22:29.359Z,101198.28
2022-08-01T04:28:35.753Z,101197.47
2022-08-01T04:38:33.006Z,101190.03
2022-08-01T04:41:51.909Z,101189.59
2022-08-01T04:44:19.475Z,101178.97
2022-08-01T04:46:49.522Z,101176.09
2022-08-01T04:49:17.853Z,101172.88
2022-08-01T04:55:20.102Z,101165.50
2022-08-01T04:58:13.263Z,101159.47
2022-08-01T05:00:43.650Z,101160.28
2022-08-01T05:04:17.125Z,101153.34
2022-08-01T05:07:17.036Z,101171.22
2022-08-01T05:09:47.173Z,101164.59
2022-08-01T05:13:04.881Z,101170.03
2022-08-01T05:15:32.367Z,101170.88
2022-08-01T05:24:50.136Z,101179.78
2022-08-01T05:27:40.751Z,101187.50
2022-08-01T05:30:10.252Z,101176.44
2022-08-01T05:32:37.912Z,101178.06
2022-08-01T05:42:14.911Z,101187.69
2022-08-01T05:44:42.405Z,101179.00
2022-08-01T05:47:09.856Z,101169.09
2022-08-01T05:49:37.352Z,101165.50
2022-08-01T05:55:54.234Z,101172.22
2022-08-01T06:01:59.265Z,101166.25
2022-08-01T06:04:26.840Z,101150.88
2022-08-01T06:14:17.288Z,101153.19
2022-08-01T06:16:44.781Z,101148.50
2022-08-01T06:19:54.842Z,101150.13
2022-08-01T06:22:22.651Z,101151.38
2022-08-01T06:28:46.752Z,101142.72
2022-08-01T06:31:49.225Z,101151.91
2022-08-01T06:34:16.591Z,101152.63
2022-08-01T06:36:43.994Z,101138.84
2022-08-01T06:39:15.708Z,101132.63
2022-08-01T06:41:43.178Z,101135.94
2022-08-01T06:44:10.738Z,101132.88
2022-08-01T06:46:40.471Z,101135.38
2022-08-01T06:49:07.947Z,101122.72
2022-08-01T06:52:23.542Z,101133.25
2022-08-01T06:54:51.046Z,101136.16
2022-08-01T06:57:18.588Z,101135.53
2022-08-01T06:59:57.310Z,101135.22
2022-08-01T07:06:12.576Z,101123.47
2022-08-01T07:09:09.437Z,101125.16
2022-08-01T07:11:40.251Z,101131.72
2022-08-01T07:14:07.812Z,101127.44
2022-08-01T07:16:35.362Z,101121.53
2022-08-01T07:19:02.999Z,101128.44
2022-08-01T07:25:11.215Z,101136.72
2022-08-01T07:27:38.822Z,101139.25
2022-08-01T07:30:07.201Z,101138.22
2022-08-01T07:32:36.026Z,101134.72
2022-08-01T07:39:51.212Z,101136.28
2022-08-01T07:42:33.796Z,101131.59
2022-08-01T07:45:02.425Z,101141.31
2022-08-01T07:47:29.849Z,101137.56
2022-08-01T07:50:01.788Z,101131.31
2022-08-01T07:52:31.400Z,101139.91
2022-08-01T07:54:59.961Z,101142.47
2022-08-01T07:57:27.544Z,101126.31
2022-08-01T07:59:55.454Z,101117.75
2022-08-01T08:02:22.970Z,101119.94
2022-08-01T08:04:50.615Z,101117.44
2022-08-01T08:07:18.164Z,101109.69
2022-08-01T08:09:45.628Z,101117.16
2022-08-01T08:12:18.814Z,101111.84
2022-08-01T08:14:56.823Z,101112.09
2022-08-01T08:17:35.916Z,101109.91
2022-08-01T08:20:06.507Z,101111.59
2022-08-01T08:22:36.983Z,101112.69
2022-08-01T08:25:05.026Z,101111.06
2022-08-01T08:27:54.323Z,101118.53
2022-08-01T08:38:03.265Z,101095.13
2022-08-01T08:40:51.670Z,101083.50
2022-08-01T08:43:39.656Z,101080.25
2022-08-01T08:46:09.472Z,101083.66
2022-08-01T08:48:38.570Z,101076.41
2022-08-01T08:51:06.968Z,101080.47
2022-08-01T08:53:35.080Z,101080.25
2022-08-01T08:59:53.083Z,101064.75
2022-08-01T09:05:47.411Z,101070.94
2022-08-01T09:08:38.829Z,101067.75
2022-08-01T09:11:26.743Z,101069.19
2022-08-01T09:14:36.620Z,101055.28
2022-08-01T09:17:09.751Z,101056.94
2022-08-01T09:23:34.934Z,101061.03
2022-08-01T09:29:37.678Z,101057.19
2022-08-01T09:32:13.910Z,101048.84
2022-08-01T09:34:47.424Z,101043.31
2022-08-01T09:37:19.068Z,101044.97
2022-08-01T09:39:58.642Z,101033.69
2022-08-01T09:46:16.285Z,101032.31
2022-08-01T09:49:07.425Z,101033.25
2022-08-01T09:51:59.422Z,101024.16
2022-08-01T09:54:34.597Z,101031.19
2022-08-01T09:57:17.181Z,101023.78
2022-08-01T09:59:58.358Z,101018.72
2022-08-01T10:02:44.282Z,101017.94
2022-08-01T10:05:18.800Z,101006.06
2022-08-01T10:08:00.325Z,101008.13
2022-08-01T10:10:29.095Z,101008.84
2022-08-01T10:13:00.876Z,101011.44
2022-08-01T10:15:37.223Z,101013.16
2022-08-01T10:18:26.274Z,101013.16
2022-08-01T10:20:56.564Z,101013.38
2022-08-01T10:23:39.848Z,101002.94
2022-08-01T10:26:09.583Z,100993.47
2022-08-01T10:28:58.004Z,101002.28
2022-08-01T10:31:32.202Z,100991.06
2022-08-01T10:34:01.366Z,100992.28
2022-08-01T10:36:29.798Z,100981.38
2022-08-01T10:38:57.713Z,100977.69
2022-08-01T10:41:53.992Z,100984.34
2022-08-01T10:44:26.100Z,100982.84
2022-08-01T10:47:03.899Z,100966.63
2022-08-01T10:49:39.716Z,100966.00
2022-08-01T10:52:08.270Z,100966.63
2022-08-01T10:55:06.378Z,100958.78
2022-08-01T10:57:52.740Z,100962.09
2022-08-01T11:00:33.831Z,100958.69
2022-08-01T11:03:04.859Z,100949.53
2022-08-01T11:05:36.599Z,100948.78
2022-08-01T11:08:24.131Z,100946.03
2022-08-01T11:11:02.453Z,100942.09
2022-08-01T11:14:12.945Z,100940.22
2022-08-01T11:16:43.224Z,100940.34
2022-08-01T11:19:54.961Z,100918.72
2022-08-01T11:22:25.496Z,100928.53
2022-08-01T11:24:58.000Z,100920.53
2022-08-01T11:27:33.717Z,100906.56
2022-08-01T11:30:13.410Z,100915.88
2022-08-01T11:33:10.509Z,100911.88
2022-08-01T11:35:37.516Z,100912.34
2022-08-01T11:38:25.802Z,100907.97
2022-08-01T11:41:14.823Z,100901.22
2022-08-01T11:44:16.513Z,100896.06
2022-08-01T11:46:51.120Z,100900.19
2022-08-01T11:49:29.963Z,100902.69
2022-08-01T11:52:08.912Z,100894.38
2022-08-01T11:55:00.183Z,100900.09
2022-08-01T11:58:02.605Z,100894.09
2022-08-01T12:00:34.187Z,100885.25
2022-08-01T12:03:05.358Z,100875.16
2022-08-01T12:05:35.028Z,100877.06
2022-08-01T12:08:04.487Z,100870.63
2022-08-01T12:10:47.280Z,100875.06
2022-08-01T12:13:19.220Z,100875.94
2022-08-01T12:15:56.696Z,100870.34
2022-08-01T12:18:24.659Z,100868.75
2022-08-01T12:21:05.857Z,100863.94
2022-08-01T12:23:34.439Z,100856.25
2022-08-01T12:26:02.792Z,100852.19
2022-08-01T12:28:30.276Z,100848.91
2022-08-01T12:30:58.194Z,100857.38
2022-08-01T12:33:25.915Z,100846.53
2022-08-01T12:35:54.036Z,100837.63
2022-08-01T12:38:28.062Z,100832.72
2022-08-01T12:41:30.492Z,100827.78
2022-08-01T12:43:58.127Z,100830.09
2022-08-01T12:46:27.260Z,100829.59
2022-08-01T12:48:54.966Z,100823.47
2022-08-01T12:51:22.568Z,100829.88
2022-08-01T12:53:50.028Z,100827.75
2022-08-01T12:56:33.144Z,100815.91
2022-08-01T12:59:01.735Z,100816.91
2022-08-01T13:01:29.879Z,100813.09
2022-08-01T13:04:02.863Z,100803.28
2022-08-01T13:06:30.624Z,100804.00
2022-08-01T13:09:08.749Z,100793.59
2022-08-01T13:11:38.066Z,100797.91
2022-08-01T13:14:28.853Z,100792.97
2022-08-01T13:16:57.562Z,100793.69
2022-08-01T13:19:46.196Z,100786.50
2022-08-01T13:22:13.780Z,100783.06
2022-08-01T13:24:41.495Z,100777.59
2022-08-01T13:27:20.884Z,100780.69
2022-08-01T13:29:50.976Z,100784.91
2022-08-01T13:32:28.641Z,100783.91
2022-08-01T13:35:39.862Z,100768.94
2022-08-01T13:38:07.345Z,100764.22
2022-08-01T13:40:34.888Z,100759.91
2022-08-01T13:43:02.453Z,100762.09
2022-08-01T13:46:19.342Z,100768.75
2022-08-01T13:48:46.913Z,100763.97
2022-08-01T13:51:27.805Z,100757.97
2022-08-01T13:53:55.827Z,100758.34
2022-08-01T13:56:44.108Z,100749.47
2022-08-01T13:59:11.670Z,100755.09
2022-08-01T14:01:39.287Z,100753.50
2022-08-01T14:04:17.728Z,100748.00
2022-08-01T14:06:45.186Z,100751.25
2022-08-01T14:09:32.727Z,100739.63
2022-08-01T14:12:10.178Z,100746.41
2022-08-01T14:14:39.268Z,100746.81
2022-08-01T14:17:06.881Z,100744.00
2022-08-01T14:19:38.777Z,100737.97
2022-08-01T14:22:07.630Z,100726.25
2022-08-01T14:24:36.244Z,100726.03
2022-08-01T14:27:57.931Z,100722.63
2022-08-01T14:31:07.442Z,100719.09
2022-08-01T14:33:35.093Z,100715.50
2022-08-01T14:36:28.619Z,100703.44
2022-08-01T14:38:52.162Z,100710.31
2022-08-01T14:41:22.624Z,100701.44
2022-08-01T14:43:50.056Z,100692.63
2022-08-01T14:46:17.519Z,100693.88
2022-08-01T14:48:45.002Z,100690.63
2022-08-01T14:54:37.857Z,100686.75
2022-08-01T15:01:08.296Z,100677.13
2022-08-01T15:03:35.750Z,100680.31
2022-08-01T15:06:03.531Z,100678.28
2022-08-01T15:08:32.712Z,100669.84
2022-08-01T15:11:00.303Z,100677.81
2022-08-01T15:13:27.881Z,100677.81
2022-08-01T15:15:55.383Z,100681.03
2022-08-01T15:18:29.340Z,100663.78
2022-08-01T15:20:58.562Z,100667.84
2022-08-01T15:23:26.077Z,100663.41
2022-08-01T15:25:53.792Z,100673.84
2022-08-01T15:28:21.310Z,100677.84
2022-08-01T15:30:48.760Z,100669.41
2022-08-01T15:33:16.505Z,100677.47
2022-08-01T15:35:44.028Z,100673.09
2022-08-01T15:38:11.483Z,100670.72
2022-08-01T15:40:39.002Z,100671.56
2022-08-01T15:43:06.631Z,100672.78
2022-08-01T15:45:49.580Z,100661.94
2022-08-01T15:48:17.986Z,100645.09
2022-08-01T15:50:45.755Z,100647.91
2022-08-01T15:53:13.276Z,100649.13
2022-08-01T15:55:40.852Z,100636.28
2022-08-01T15:58:11.644Z,100629.06
2022-08-01T16:00:40.359Z,100628.66
2022-08-01T16:03:10.298Z,100635.53
2022-08-01T16:05:43.515Z,100631.06
2022-08-01T16:08:12.867Z,100623.44
2022-08-01T16:10:40.829Z,100618.22
2022-08-01T16:13:08.774Z,100608.16
2022-08-01T16:15:37.803Z,100606.16
2022-08-01T16:18:13.184Z,100592.91
2022-08-01T16:20:45.406Z,100598.47
2022-08-01T16:23:15.038Z,100590.75
2022-08-01T16:25:44.687Z,100594.28
2022-08-01T16:28:12.470Z,100593.47
2022-08-01T16:30:47.800Z,100596.66
2022-08-01T16:34:05.182Z,100597.09
2022-08-01T16:37:10.224Z,100594.38
2022-08-01T16:40:11.200Z,100581.97
2022-08-01T16:42:38.739Z,100581.13
2022-08-01T16:45:12.764Z,100583.13
2022-08-01T16:47:42.203Z,100575.47
2022-08-01T16:50:10.854Z,100574.34
2022-08-01T16:52:41.718Z,100569.56
2022-08-01T16:55:11.004Z,100565.19
2022-08-01T16:57:38.956Z,100568.81
2022-08-01T17:00:21.174Z,100551.94
2022-08-01T17:02:53.466Z,100553.56
2022-08-01T17:05:21.616Z,100545.53
2022-08-01T17:07:49.279Z,100534.69
2022-08-01T17:10:16.813Z,100535.88
2022-08-01T17:12:44.356Z,100534.28
2022-08-01T17:15:12.366Z,100512.59
2022-08-01T17:17:40.699Z,100521.91
2022-08-01T17:20:08.792Z,100511.03
2022-08-01T17:22:36.302Z,100502.16
2022-08-01T17:28:49.809Z,100494.19
2022-08-01T17:31:17.473Z,100489.34
2022-08-01T17:33:47.902Z,100490.16
2022-08-01T17:36:21.323Z,100482.13
2022-08-01T17:38:48.740Z,100482.22
2022-08-01T17:41:16.230Z,100485.81
2022-08-01T17:43:50.998Z,100481.38
2022-08-01T17:46:18.524Z,100474.97
2022-08-01T17:48:46.874Z,100481.75
2022-08-01T17:51:18.111Z,100468.88
2022-08-01T17:54:30.656Z,100465.25
2022-08-01T17:56:58.116Z,100460.38
2022-08-01T17:59:25.639Z,100464.34
2022-08-01T18:01:53.099Z,100466.28
2022-08-01T18:04:20.692Z,100459.44
2022-08-01T18:06:58.308Z,100464.25
2022-08-01T18:09:26.628Z,100458.50
2022-08-01T18:11:54.132Z,100442.44
2022-08-01T18:14:21.893Z,100438.34
2022-08-01T18:17:09.958Z,100435.13
2022-08-01T18:19:39.720Z,100441.53
2022-08-01T18:22:19.528Z,100431.97
2022-08-01T18:24:55.009Z,100425.97
2022-08-01T18:27:22.545Z,100413.91
2022-08-01T18:29:50.231Z,100427.19
2022-08-01T18:32:17.733Z,100416.28
2022-08-01T18:34:45.444Z,100412.63
2022-08-01T18:37:16.790Z,100416.25
2022-08-01T18:40:28.574Z,100413.47
2022-08-01T18:42:56.068Z,100410.66
2022-08-01T18:45:30.874Z,100407.13
2022-08-01T18:48:16.078Z,100403.94
2022-08-01T18:50:44.083Z,100409.94
2022-08-01T18:56:56.949Z,100403.13
2022-08-01T19:07:24.392Z,100404.50
2022-08-01T19:10:04.519Z,100405.69
2022-08-01T19:15:58.012Z,100397.72
2022-08-01T19:18:26.725Z,100400.53
2022-08-01T19:20:54.397Z,100387.72
2022-08-01T19:23:40.886Z,100385.75
2022-08-01T19:30:02.030Z,100373.78
2022-08-01T19:36:47.829Z,100370.59
2022-08-01T19:39:21.667Z,100372.22
2022-08-01T19:41:51.277Z,100373.09
2022-08-01T19:44:22.810Z,100368.31
2022-08-01T19:46:52.035Z,100362.75
2022-08-01T19:52:57.803Z,100354.06
2022-08-01T19:55:47.297Z,100359.34
2022-08-01T19:58:52.821Z,100362.94
2022-08-01T20:01:28.095Z,100356.53
2022-08-01T20:15:39.356Z,100336.63
2022-08-01T20:18:27.131Z,100350.31
2022-08-01T20:20:57.207Z,100339.44
2022-08-01T20:27:06.553Z,100341.50
2022-08-01T20:30:04.972Z,100348.72
2022-08-01T20:32:34.668Z,100351.53
2022-08-01T20:35:51.986Z,100343.94
2022-08-01T20:38:24.124Z,100335.94
2022-08-01T20:41:28.388Z,100344.41
2022-08-01T20:43:59.649Z,100352.84
2022-08-01T20:46:28.854Z,100340.84
2022-08-01T20:49:27.267Z,100331.19
2022-08-01T20:51:56.817Z,100328.75
2022-08-01T20:54:24.388Z,100318.31
2022-08-01T20:57:08.026Z,100328.38
2022-08-01T21:00:23.557Z,100321.59
2022-08-01T21:03:06.756Z,100326.41
2022-08-01T21:05:41.959Z,100324.81
2022-08-01T21:08:41.037Z,100326.44
2022-08-01T21:11:22.037Z,100322.44
2022-08-01T21:14:02.526Z,100326.44
2022-08-01T21:16:34.270Z,100326.81
2022-08-01T21:19:27.427Z,100318.44
2022-08-01T21:22:11.072Z,100326.44
2022-08-01T21:24:58.706Z,100321.63
2022-08-01T21:27:32.823Z,100325.63
2022-08-01T21:30:08.270Z,100334.50
2022-08-01T21:32:36.945Z,100329.69
2022-08-01T21:35:15.708Z,100339.69
2022-08-01T21:37:52.520Z,100338.47
2022-08-01T21:40:24.736Z,100341.72
2022-08-01T21:42:53.577Z,100336.94
2022-08-01T21:45:26.272Z,100322.47
2022-08-01T21:47:57.420Z,100334.53
2022-08-01T21:54:13.550Z,100313.66
2022-08-01T21:56:54.255Z,100314.47
2022-08-01T21:59:51.386Z,100313.66
2022-08-01T22:02:29.763Z,100313.28
2022-08-01T22:05:08.700Z,100310.47
2022-08-01T22:07:44.328Z,100306.44
2022-08-01T22:15:17.628Z,100312.81
2022-08-01T22:17:49.711Z,100316.00
2022-08-01T22:20:20.814Z,100299.16
2022-08-01T22:23:09.914Z,100306.78
2022-08-01T22:25:37.666Z,100313.16
2022-08-01T22:31:57.017Z,100312.75
2022-08-01T22:34:27.569Z,100307.13
2022-08-01T22:36:56.329Z,100311.13
2022-08-01T22:43:29.754Z,100300.75
2022-08-01T22:46:24.381Z,100306.38
2022-08-01T22:49:09.508Z,100295.13
2022-08-01T22:51:54.489Z,100283.09
2022-08-01T22:54:38.789Z,100279.50
2022-08-01T22:57:27.033Z,100281.13
2022-08-01T23:00:07.366Z,100285.19
2022-08-01T23:02:45.606Z,100267.91
2022-08-01T23:05:47.176Z,100293.63
2022-08-01T23:08:22.208Z,100282.78
2022-08-01T23:10:52.201Z,100282.38
2022-08-01T23:13:20.823Z,100278.41
2022-08-01T23:15:52.534Z,100275.16
2022-08-01T23:18:21.557Z,100258.31
2022-08-01T23:20:50.609Z,100259.50
2022-08-01T23:23:30.950Z,100251.09
2022-08-01T23:26:00.839Z,100252.72
2022-08-01T23:28:48.675Z,100261.94
2022-08-01T23:31:16.998Z,100259.16
2022-08-01T23:33:49.333Z,100248.28
2022-08-01T23:36:17.646Z,100244.28
2022-08-01T23:38:45.819Z,100241.50
2022-08-01T23:41:16.147Z,100247.94
2022-08-01T23:43:51.999Z,100244.34
2022-08-01T23:46:19.836Z,100233.13
2022-08-01T23:48:47.504Z,100243.13
2022-08-01T23:51:24.273Z,100245.13
2022-08-01T23:53:52.552Z,100253.56
2022-08-01T23:56:25.493Z,100243.97
2022-08-01T23:58:53.139Z,100244.75
